Time;durP1;ratioP1;P1;durP2;ratioP2;P2;SDS_P1;SDS_P2;PMS_P1;PMS_P2;Temp;Humidity;BMP_temperature;BMP_pressure;BME280_temperature;BME280_humidity;BME280_pressure;Samples;Min_cycle;Max_cycle;Signal;HPM_P1;HPM_P2
2023/03/31 00:02:21;;;;;;;3.90;1.10;;;;;;;13.07;100.00;99579.66;8323828;28;20407;-53
2023/03/31 00:06:21;;;;;;;4.00;1.53;;;;;;;13.08;100.00;99571.31;8322910;28;20052;-55
2023/03/31 00:10:22;;;;;;;8.45;1.38;;;;;;;12.94;100.00;99555.81;8322965;28;20042;-54
2023/03/31 00:14:22;;;;;;;8.88;1.60;;;;;;;12.90;100.00;99546.31;8321919;28;20030;-53
2023/03/31 00:18:24;;;;;;;9.65;1.55;;;;;;;12.91;100.00;99536.31;8324049;28;20036;-54
2023/03/31 00:22:26;;;;;;;10.02;1.50;;;;;;;12.99;100.00;99528.13;8321705;28;20116;-54
2023/03/31 00:26:28;;;;;;;7.82;1.92;;;;;;;12.87;100.00;99518.72;8308463;28;20091;-54
2023/03/31 00:30:28;;;;;;;9.15;1.52;;;;;;;12.88;100.00;99504.13;8296581;28;20041;-54
2023/03/31 00:34:29;;;;;;;7.68;1.05;;;;;;;12.83;100.00;99490.25;8296351;28;20045;-60
2023/03/31 00:38:30;;;;;;;9.52;1.52;;;;;;;12.76;100.00;99478.44;8319603;28;20045;-60
2023/03/31 00:42:30;;;;;;;6.72;1.30;;;;;;;12.67;100.00;99474.94;8330274;28;20124;-60
2023/03/31 00:46:36;;;;;;;12.60;1.77;;;;;;;12.64;100.00;99463.59;8327789;28;20112;-60
2023/03/31 00:50:45;;;;;;;12.27;1.60;;;;;;;12.56;100.00;99450.09;8329441;28;20033;-60
2023/03/31 00:54:50;;;;;;;9.98;1.48;;;;;;;12.59;100.00;99444.34;8329439;28;20124;-60
2023/03/31 00:58:52;;;;;;;10.50;1.40;;;;;;;12.41;100.00;99430.22;8300177;28;20046;-59
2023/03/31 01:02:57;;;;;;;9.38;2.13;;;;;;;12.43;100.00;99436.28;8295882;28;20374;-59
2023/03/31 01:07:08;;;;;;;7.05;1.55;;;;;;;12.70;100.00;99441.19;8309340;28;20052;-59
2023/03/31 01:11:12;;;;;;;11.73;1.92;;;;;;;12.94;100.00;99424.72;8327844;28;20056;-60
2023/03/31 01:15:13;;;;;;;7.70;1.30;;;;;;;13.12;100.00;99419.84;8335285;28;20033;-60
2023/03/31 01:19:26;;;;;;;7.93;1.63;;;;;;;13.14;100.00;99417.78;8328657;28;20039;-59
2023/03/31 01:24:06;;;;;;;10.60;1.75;;;;;;;13.20;100.00;99419.75;8328613;28;20042;-59
2023/03/31 01:28:22;;;;;;;8.32;1.48;;;;;;;13.16;100.00;99400.31;8328046;28;20391;-60
2023/03/31 01:32:52;;;;;;;12.90;2.22;;;;;;;13.12;100.00;99400.88;8322947;28;20059;-60
2023/03/31 01:37:32;;;;;;;13.55;2.40;;;;;;;13.12;100.00;99393.53;8325953;28;20033;-59
2023/03/31 01:41:47;;;;;;;8.25;2.17;;;;;;;13.04;100.00;99390.06;8326228;28;20518;-60
2023/03/31 01:46:20;;;;;;;11.50;1.50;;;;;;;12.73;100.00;99386.59;8327717;28;20041;-59
2023/03/31 01:50:54;;;;;;;11.20;1.77;;;;;;;12.86;100.00;99381.38;8327849;28;20529;-58
2023/03/31 01:55:19;;;;;;;16.35;2.20;;;;;;;12.86;100.00;99370.53;8316634;28;20119;-58
2023/03/31 01:59:28;;;;;;;12.88;2.20;;;;;;;12.85;100.00;99358.88;8294551;28;20500;-59
2023/03/31 02:03:36;;;;;;;13.20;2.25;;;;;;;12.96;100.00;99352.16;8300886;28;20079;-59
2023/03/31 02:07:44;;;;;;;20.55;2.90;;;;;;;12.95;100.00;99331.47;8327319;28;20413;-59
2023/03/31 02:11:47;;;;;;;14.43;1.90;;;;;;;13.05;100.00;99323.94;8300512;28;20057;-59
2023/03/31 02:15:52;;;;;;;11.77;1.70;;;;;;;13.09;100.00;99298.13;8294365;28;20121;-58
2023/03/31 02:19:53;;;;;;;12.57;2.03;;;;;;;13.08;100.00;99282.84;8293230;28;20385;-59
2023/03/31 02:23:55;;;;;;;15.75;2.45;;;;;;;12.90;100.00;99266.91;8323107;28;20041;-58
2023/03/31 02:28:01;;;;;;;11.13;1.65;;;;;;;13.02;100.00;99259.22;8324020;28;20037;-55
2023/03/31 02:32:28;;;;;;;8.00;1.90;;;;;;;12.94;100.00;99256.53;8314520;28;20045;-54
2023/03/31 02:36:29;;;;;;;10.40;2.42;;;;;;;12.83;100.00;99243.44;8295431;28;20500;-54
2023/03/31 02:40:30;;;;;;;14.95;2.38;;;;;;;12.81;100.00;99208.34;8324369;28;20482;-54
2023/03/31 02:44:30;;;;;;;11.63;2.75;;;;;;;12.77;100.00;99184.50;8325493;28;20044;-54
2023/03/31 02:48:36;;;;;;;7.95;2.13;;;;;;;12.80;100.00;99166.00;8323511;28;20124;-54
2023/03/31 02:53:05;;;;;;;11.43;1.73;;;;;;;12.81;100.00;99166.84;8292050;28;20052;-54
2023/03/31 02:57:45;;;;;;;16.50;2.13;;;;;;;12.89;100.00;99153.19;8325465;28;20045;-53
2023/03/31 03:02:22;;;;;;;8.00;1.98;;;;;;;13.03;100.00;99155.94;8325330;28;20041;-55
2023/03/31 03:06:52;;;;;;;14.48;2.00;;;;;;;13.00;100.00;99141.88;8324095;28;20507;-54
2023/03/31 03:11:21;;;;;;;16.42;1.80;;;;;;;13.14;98.93;99135.56;8322789;28;20129;-54
2023/03/31 03:15:36;;;;;;;9.13;1.30;;;;;;;13.15;98.42;99118.28;8320426;28;20056;-53
2023/03/31 03:19:36;;;;;;;8.63;1.20;;;;;;;13.10;98.35;99129.72;8324012;28;20059;-54
2023/03/31 03:23:37;;;;;;;8.07;0.90;;;;;;;13.19;95.81;99117.72;8324627;28;20545;-54
2023/03/31 03:27:38;;;;;;;7.93;1.15;;;;;;;13.22;94.58;99116.47;8324660;28;20041;-54
2023/03/31 03:31:40;;;;;;;3.83;1.10;;;;;;;13.18;94.05;99094.31;8325293;28;20033;-54
2023/03/31 03:35:40;;;;;;;3.85;1.30;;;;;;;13.19;93.09;99096.00;8324061;28;20065;-54
2023/03/31 03:39:40;;;;;;;6.28;1.02;;;;;;;13.10;94.29;99080.88;8324044;28;20045;-58
2023/03/31 03:43:41;;;;;;;8.38;1.10;;;;;;;12.97;95.63;99083.41;8324585;28;20723;-58
2023/03/31 03:47:41;;;;;;;7.75;1.02;;;;;;;13.05;94.78;99079.78;8324358;28;20037;-58
2023/03/31 03:51:42;;;;;;;5.07;1.10;;;;;;;13.07;93.52;99069.56;8323972;28;20033;-59
2023/03/31 03:55:43;;;;;;;6.80;1.20;;;;;;;13.13;92.94;99057.94;8324176;28;20066;-59
2023/03/31 03:59:44;;;;;;;4.82;0.95;;;;;;;13.07;92.50;99042.41;8324299;28;20044;-59
2023/03/31 04:03:44;;;;;;;7.85;0.73;;;;;;;13.15;90.44;99039.59;8323020;28;20044;-61
2023/03/31 04:07:45;;;;;;;2.03;1.10;;;;;;;13.15;89.95;99007.03;8320678;28;20036;-61
2023/03/31 04:11:45;;;;;;;4.13;0.70;;;;;;;13.05;90.60;99025.50;8314314;28;20041;-61
2023/03/31 04:15:46;;;;;;;4.57;1.13;;;;;;;13.10;89.48;98990.47;8335695;28;20296;-61
2023/03/31 04:19:49;;;;;;;3.95;0.75;;;;;;;13.19;88.50;98973.88;8311241;28;20124;-61
2023/03/31 04:23:57;;;;;;;4.32;1.00;;;;;;;13.31;88.08;98938.91;8343660;28;20384;-60
2023/03/31 04:27:58;;;;;;;3.40;0.70;;;;;;;13.11;89.16;98956.88;8323297;28;20041;-60
2023/03/31 04:31:58;;;;;;;6.97;0.90;;;;;;;13.16;89.06;98943.59;8318164;28;20049;-61
2023/03/31 04:36:05;;;;;;;2.72;1.08;;;;;;;13.13;88.67;98933.97;8309239;28;20057;-60
2023/03/31 04:40:07;;;;;;;3.75;0.70;;;;;;;13.19;88.40;98899.78;8321602;28;20053;-61
2023/03/31 04:44:08;;;;;;;7.30;1.02;;;;;;;13.20;87.60;98901.44;8320258;28;20045;-61
2023/03/31 04:48:08;;;;;;;3.58;0.85;;;;;;;13.17;87.49;98885.56;8307802;28;20121;-61
2023/03/31 04:52:09;;;;;;;5.20;0.77;;;;;;;13.31;86.79;98874.63;8299825;28;20041;-60
2023/03/31 04:56:10;;;;;;;2.50;0.60;;;;;;;13.30;86.80;98859.34;8310644;28;20381;-61
2023/03/31 05:00:11;;;;;;;3.15;1.25;;;;;;;13.35;86.58;98856.91;8299546;28;20034;-61
2023/03/31 05:04:11;;;;;;;3.40;0.82;;;;;;;13.34;86.23;98857.09;8294550;28;20779;-61
2023/03/31 05:08:11;;;;;;;1.23;0.50;;;;;;;13.43;85.01;98836.91;8322617;28;20060;-60
2023/03/31 05:12:12;;;;;;;6.55;0.90;;;;;;;13.51;84.71;98818.56;8338044;28;20056;-60
2023/03/31 05:16:13;;;;;;;3.88;0.93;;;;;;;13.37;85.21;98833.13;8323898;28;20557;-60
2023/03/31 05:20:14;;;;;;;5.03;0.93;;;;;;;13.33;85.97;98820.97;8322888;28;20053;-60
2023/03/31 05:24:14;;;;;;;3.38;0.60;;;;;;;13.31;86.34;98823.06;8321665;28;20530;-60
2023/03/31 05:28:14;;;;;;;2.33;0.80;;;;;;;13.33;85.83;98809.28;8326282;28;20510;-58
2023/03/31 05:32:15;;;;;;;3.05;0.40;;;;;;;13.35;85.43;98808.03;8319820;28;20411;-59
2023/03/31 05:36:16;;;;;;;3.55;0.73;;;;;;;13.41;85.19;98814.53;8329281;28;20454;-58
2023/03/31 05:40:17;;;;;;;4.25;0.77;;;;;;;13.33;85.52;98810.09;8294711;28;20534;-58
2023/03/31 05:44:19;;;;;;;6.82;1.45;;;;;;;13.42;83.95;98808.09;8290667;28;20405;-58
2023/03/31 05:48:20;;;;;;;6.28;1.73;;;;;;;13.49;83.15;98808.97;8293794;28;20053;-58
2023/03/31 05:52:20;;;;;;;4.65;1.60;;;;;;;13.50;82.98;98805.19;8320369;28;20309;-55
2023/03/31 05:56:21;;;;;;;11.10;2.03;;;;;;;13.49;82.51;98798.09;8321858;28;20522;-53
2023/03/31 06:00:22;;;;;;;5.10;0.90;;;;;;;13.49;83.44;98782.66;8282699;28;20033;-52
2023/03/31 06:04:23;;;;;;;4.10;0.60;;;;;;;13.22;84.92;98764.56;8291952;28;20041;-54
2023/03/31 06:08:23;;;;;;;3.47;0.38;;;;;;;13.08;87.00;98770.06;8343900;28;20662;-54
2023/03/31 06:12:24;;;;;;;3.30;0.75;;;;;;;12.88;90.02;98769.94;8307054;28;20038;-58
2023/03/31 06:16:25;;;;;;;4.82;0.40;;;;;;;12.75;90.90;98760.88;8292276;28;20068;-59
2023/03/31 06:20:25;;;;;;;1.15;0.20;;;;;;;12.69;91.67;98758.94;8292723;28;20112;-59
2023/03/31 06:24:25;;;;;;;1.95;0.30;;;;;;;12.64;91.63;98770.38;8324791;28;20052;-58
2023/03/31 06:28:26;;;;;;;2.28;0.32;;;;;;;12.83;87.92;98768.81;8324091;28;20852;-58
2023/03/31 06:32:26;;;;;;;2.40;0.30;;;;;;;12.90;87.67;98775.16;8324619;28;20128;-58
2023/03/31 06:36:27;;;;;;;1.15;0.40;;;;;;;12.97;86.77;98770.63;8323859;28;20416;-58
2023/03/31 06:40:28;;;;;;;2.08;0.40;;;;;;;13.00;85.74;98756.69;8318333;28;20041;-58
2023/03/31 06:44:28;;;;;;;0.80;0.30;;;;;;;13.14;84.29;98750.28;8293682;28;20038;-58
2023/03/31 06:48:29;;;;;;;2.83;0.47;;;;;;;13.20;84.17;98738.63;8322233;28;20068;-59
2023/03/31 06:52:31;;;;;;;0.20;0.20;;;;;;;13.53;82.55;98739.63;8322378;28;20041;-58
2023/03/31 06:56:31;;;;;;;1.30;0.30;;;;;;;13.61;82.44;98742.19;8322500;28;20125;-54
2023/03/31 07:00:32;;;;;;;2.72;0.57;;;;;;;13.70;82.74;98746.41;8322546;28;20041;-55
2023/03/31 07:04:33;;;;;;;1.70;0.30;;;;;;;13.75;82.93;98733.03;8324040;28;20045;-55
2023/03/31 07:08:33;;;;;;;3.75;0.77;;;;;;;13.73;83.19;98729.69;8313671;28;20099;-54
2023/03/31 07:12:34;;;;;;;3.50;0.73;;;;;;;13.94;82.06;98726.84;8325539;28;20041;-54
2023/03/31 07:16:35;;;;;;;2.58;0.60;;;;;;;14.23;80.77;98731.94;8322866;28;20037;-53
2023/03/31 07:20:36;;;;;;;2.03;0.40;;;;;;;14.48;80.08;98724.81;8322680;28;20045;-54
2023/03/31 07:24:37;;;;;;;2.45;0.70;;;;;;;14.52;81.24;98719.81;8322114;28;20053;-54
2023/03/31 07:28:37;;;;;;;4.57;1.00;;;;;;;14.59;80.95;98716.06;8353369;28;20048;-54
2023/03/31 07:32:39;;;;;;;1.77;0.55;;;;;;;14.62;80.24;98703.91;8333684;28;20497;-54
2023/03/31 07:36:40;;;;;;;3.42;0.80;;;;;;;14.58;81.09;98698.03;8313593;28;20037;-54
2023/03/31 07:40:43;;;;;;;6.22;0.80;;;;;;;14.71;80.63;98691.75;8321696;28;20041;-54
2023/03/31 07:44:43;;;;;;;3.40;0.82;;;;;;;15.19;80.16;98702.09;8321885;28;20041;-54
2023/03/31 07:48:45;;;;;;;5.97;0.80;;;;;;;15.76;79.02;98708.63;8318125;28;20037;-54
2023/03/31 07:52:46;;;;;;;4.95;1.25;;;;;;;15.69;78.46;98704.06;8321706;28;20038;-54
2023/03/31 07:56:46;;;;;;;3.88;1.05;;;;;;;15.41;79.64;98708.97;8315890;28;20040;-54
2023/03/31 08:00:47;;;;;;;6.43;1.30;;;;;;;15.21;79.57;98702.75;8289620;28;20042;-55
2023/03/31 08:04:47;;;;;;;5.72;1.27;;;;;;;15.13;80.13;98702.16;8289904;28;20451;-53
2023/03/31 08:08:49;;;;;;;7.43;1.27;;;;;;;15.08;80.38;98693.78;8313894;28;20044;-55
2023/03/31 08:12:49;;;;;;;5.63;1.50;;;;;;;15.06;79.27;98693.13;8319869;28;20033;-54
2023/03/31 08:16:52;;;;;;;7.32;1.05;;;;;;;15.05;80.08;98677.88;8321926;28;20029;-52
2023/03/31 08:20:52;;;;;;;6.20;1.02;;;;;;;15.12;78.92;98690.41;8321895;28;20033;-52
2023/03/31 08:24:52;;;;;;;7.88;1.58;;;;;;;15.35;77.91;98685.31;8321855;28;20053;-54
2023/03/31 08:28:53;;;;;;;10.45;2.08;;;;;;;15.61;77.07;98674.31;8320972;28;20042;-53
2023/03/31 08:32:53;;;;;;;8.55;1.75;;;;;;;15.96;76.01;98672.03;8318349;28;20037;-54
2023/03/31 08:36:54;;;;;;;12.60;1.25;;;;;;;16.12;75.16;98676.09;8321315;28;20415;-54
2023/03/31 08:41:00;;;;;;;6.55;1.33;;;;;;;16.21;75.46;98669.31;8316219;28;20045;-53
2023/03/31 08:45:21;;;;;;;11.82;2.88;;;;;;;16.67;75.01;98665.19;8290033;28;20125;-57
2023/03/31 08:49:23;;;;;;;11.73;2.67;;;;;;;16.95;72.38;98665.53;8264757;28;20069;-53
2023/03/31 08:53:27;;;;;;;11.40;1.67;;;;;;;17.34;71.99;98653.31;8286260;28;20054;-54
2023/03/31 08:57:51;;;;;;;11.82;2.13;;;;;;;17.93;69.79;98656.09;8293525;28;20042;-53
2023/03/31 09:02:00;;;;;;;13.38;1.60;;;;;;;18.44;68.18;98653.63;8300844;28;20033;-54
2023/03/31 09:06:07;;;;;;;8.23;1.50;;;;;;;18.61;66.63;98649.13;8324812;28;20486;-54
2023/03/31 09:10:34;;;;;;;12.77;2.00;;;;;;;18.49;65.91;98656.50;8325387;28;20041;-54
2023/03/31 09:14:42;;;;;;;9.25;1.70;;;;;;;17.80;66.22;98656.28;8298021;28;20041;-52
2023/03/31 09:18:46;;;;;;;8.30;1.55;;;;;;;17.61;67.59;98651.94;8293295;28;20540;-54
2023/03/31 09:22:51;;;;;;;6.57;1.57;;;;;;;17.20;68.84;98654.53;8326629;28;20037;-56
2023/03/31 09:26:57;;;;;;;8.38;1.40;;;;;;;16.76;70.54;98649.34;8326250;28;20045;-54
2023/03/31 09:30:58;;;;;;;8.50;1.70;;;;;;;16.39;70.14;98634.78;8342186;28;20061;-53
2023/03/31 09:35:11;;;;;;;13.85;2.08;;;;;;;16.85;68.54;98634.34;8326306;28;20100;-53
2023/03/31 09:39:14;;;;;;;7.63;1.70;;;;;;;17.99;65.77;98630.56;8326385;28;20518;-54
2023/03/31 09:43:23;;;;;;;10.80;2.00;;;;;;;17.84;65.58;98613.75;8326292;28;20043;-54
2023/03/31 09:47:31;;;;;;;5.22;1.65;;;;;;;18.10;66.01;98624.28;8296768;28;20449;-58
2023/03/31 09:51:36;;;;;;;13.32;1.92;;;;;;;17.91;66.08;98619.97;8308043;28;20452;-59
2023/03/31 09:55:43;;;;;;;11.45;2.60;;;;;;;17.57;67.90;98609.75;8292719;28;20054;-58
2023/03/31 09:59:50;;;;;;;8.80;2.05;;;;;;;17.46;67.37;98619.56;8292190;28;20034;-60
2023/03/31 10:03:53;;;;;;;12.38;2.25;;;;;;;17.38;68.66;98613.53;8325343;28;20045;-60
2023/03/31 10:12:29;;;;;;;12.57;2.47;;;;;;;17.49;69.15;98599.13;8358774;27;20351;-59
2023/03/31 10:16:32;;;;;;;5.43;1.63;;;;;;;17.79;68.41;98596.38;8362333;28;20041;-59
2023/03/31 10:20:37;;;;;;;13.35;2.47;;;;;;;17.98;67.25;98590.63;8349956;28;20119;-59
2023/03/31 10:24:40;;;;;;;6.43;1.77;;;;;;;18.09;67.39;98595.28;8348056;28;20052;-59
2023/03/31 10:28:41;;;;;;;11.27;2.00;;;;;;;17.90;65.98;98587.38;8348838;28;20339;-59
2023/03/31 10:32:43;;;;;;;11.23;2.22;;;;;;;17.63;67.95;98590.50;8349805;28;20076;-59
2023/03/31 10:36:47;;;;;;;7.75;1.85;;;;;;;17.35;66.88;98586.69;8348836;28;20072;-60
2023/03/31 10:40:51;;;;;;;7.40;1.55;;;;;;;17.12;67.38;98592.88;8381556;28;20078;-59
2023/03/31 10:45:13;;;;;;;5.45;1.25;;;;;;;16.93;67.40;98598.56;8381572;28;20526;-59
2023/03/31 10:49:24;;;;;;;5.88;1.25;;;;;;;16.73;68.44;98592.50;8381360;28;20044;-61
2023/03/31 10:53:25;;;;;;;5.50;1.15;;;;;;;16.84;68.74;98594.47;8381180;28;20032;-59
2023/03/31 10:57:52;;;;;;;9.27;1.75;;;;;;;16.82;68.93;98591.97;8380426;28;20028;-59
2023/03/31 11:06:19;;;;;;;7.57;1.80;;;;;;;16.97;67.34;98572.47;8346261;27;20437;-59
2023/03/31 11:10:33;;;;;;;4.78;1.30;;;;;;;16.83;68.57;98568.22;8326691;28;20049;-59
2023/03/31 11:14:45;;;;;;;13.80;1.27;;;;;;;16.93;67.50;98571.28;8318441;28;20046;-61
2023/03/31 11:19:00;;;;;;;6.75;1.58;;;;;;;16.95;68.24;98564.50;8318344;28;20409;-59
2023/03/31 11:23:27;;;;;;;10.10;1.70;;;;;;;16.84;69.36;98562.53;8317458;28;20491;-61
2023/03/31 11:27:56;;;;;;;10.18;2.10;;;;;;;16.87;69.93;98561.28;8317869;28;20045;-61
2023/03/31 11:32:25;;;;;;;10.88;1.95;;;;;;;17.14;69.72;98544.31;8318167;28;20065;-61
2023/03/31 11:36:56;;;;;;;12.73;2.30;;;;;;;17.07;67.61;98550.91;8317077;28;20048;-61
2023/03/31 11:41:02;;;;;;;15.57;3.05;;;;;;;16.98;67.48;98534.03;8332759;28;20414;-59
2023/03/31 11:45:17;;;;;;;12.00;2.40;;;;;;;17.04;69.23;98537.72;8317492;28;20033;-59
2023/03/31 11:49:37;;;;;;;11.88;2.00;;;;;;;16.76;69.33;98537.47;8310059;28;20408;-56
2023/03/31 11:53:40;;;;;;;16.67;2.42;;;;;;;16.74;68.36;98534.97;8337582;28;20030;-57
2023/03/31 11:57:51;;;;;;;9.82;1.90;;;;;;;17.13;66.17;98533.63;8317919;28;20151;-58
2023/03/31 12:02:03;;;;;;;8.43;1.60;;;;;;;17.48;65.06;98532.72;8316699;28;20278;-57
2023/03/31 12:06:15;;;;;;;7.70;1.80;;;;;;;17.67;64.15;98524.47;8320312;28;20128;-57
2023/03/31 12:10:30;;;;;;;8.23;1.50;;;;;;;17.65;64.12;98521.97;8350800;28;20041;-53
2023/03/31 12:14:42;;;;;;;8.70;1.60;;;;;;;17.79;64.05;98517.97;8345283;28;20037;-53
2023/03/31 12:19:06;;;;;;;15.00;2.08;;;;;;;17.99;64.41;98512.97;8328371;28;20446;-53
2023/03/31 12:23:18;;;;;;;8.32;1.60;;;;;;;17.84;64.11;98514.53;8277576;28;20412;-53
2023/03/31 12:27:29;;;;;;;8.50;1.40;;;;;;;17.74;62.97;98501.41;8290482;28;20424;-54
2023/03/31 12:31:32;;;;;;;7.95;1.60;;;;;;;17.78;62.55;98502.59;8295345;28;20111;-53
2023/03/31 12:40:28;;;;;;;9.23;1.42;;;;;;;17.60;63.97;98491.78;8317117;27;20472;-53
2023/03/31 12:45:07;;;;;;;9.00;2.10;;;;;;;17.07;67.21;98508.06;8319219;28;20044;-53
2023/03/31 12:49:41;;;;;;;13.52;1.85;;;;;;;16.24;77.86;98510.72;8319573;28;20052;-53
2023/03/31 12:54:01;;;;;;;11.27;1.67;;;;;;;15.70;82.39;98520.47;8319411;28;20633;-53
2023/03/31 13:02:34;;;;;;;5.90;1.65;;;;;;;16.11;79.42;98489.06;8351700;27;20481;-51
2023/03/31 13:10:57;;;;;;;11.20;1.73;;;;;;;16.40;74.31;98474.69;8310403;28;20455;-56
2023/03/31 13:14:58;;;;;;;10.80;1.60;;;;;;;16.67;74.63;98470.59;8324318;28;20040;-52
2023/03/31 13:19:00;;;;;;;11.85;2.00;;;;;;;16.85;73.75;98457.78;8330546;28;20061;-55
2023/03/31 13:23:05;;;;;;;10.15;1.55;;;;;;;17.08;70.55;98459.78;8328842;28;20461;-53
2023/03/31 13:27:30;;;;;;;7.88;1.63;;;;;;;17.16;67.42;98463.00;8349777;28;20128;-52
2023/03/31 13:32:07;;;;;;;9.13;1.40;;;;;;;17.05;69.04;98455.59;8351796;28;20107;-52
2023/03/31 13:36:40;;;;;;;8.02;1.60;;;;;;;17.47;66.01;98459.19;8331741;28;20130;-52
2023/03/31 13:41:01;;;;;;;8.52;1.15;;;;;;;17.85;66.42;98445.94;8338721;28;20041;-52
2023/03/31 13:45:32;;;;;;;5.18;0.73;;;;;;;18.18;62.05;98465.31;8331285;28;20056;-53
2023/03/31 13:50:06;;;;;;;4.45;1.10;;;;;;;17.89;64.31;98458.06;8324685;28;20038;-53
2023/03/31 13:54:34;;;;;;;7.55;0.85;;;;;;;17.41;64.35;98462.81;8345240;28;20136;-53
2023/03/31 13:59:15;;;;;;;5.10;0.80;;;;;;;17.14;65.09;98453.38;8337786;28;20469;-54
2023/03/31 14:07:45;;;;;;;7.47;1.08;;;;;;;16.99;63.45;98447.53;8347531;27;20380;-53
2023/03/31 14:11:45;;;;;;;3.85;0.68;;;;;;;17.09;62.56;98421.31;8351366;28;20037;-52
2023/03/31 14:15:50;;;;;;;3.25;0.70;;;;;;;17.55;61.84;98420.59;8338091;28;20053;-52
2023/03/31 14:20:30;;;;;;;3.75;0.73;;;;;;;17.93;60.51;98409.22;8315088;28;20026;-53
2023/03/31 14:24:40;;;;;;;7.40;1.20;;;;;;;17.96;59.33;98415.00;8299435;28;20103;-53
2023/03/31 14:29:12;;;;;;;3.58;0.82;;;;;;;17.86;59.66;98420.25;8302531;28;20045;-53
2023/03/31 14:33:40;;;;;;;7.07;1.10;;;;;;;17.58;61.11;98406.47;8344361;28;20541;-53
2023/03/31 14:37:40;;;;;;;5.43;0.98;;;;;;;17.53;60.43;98398.97;8310615;28;20045;-59
2023/03/31 14:41:43;;;;;;;3.75;0.93;;;;;;;17.70;60.68;98388.19;8303516;28;20152;-59
2023/03/31 14:45:43;;;;;;;3.58;0.88;;;;;;;17.63;61.17;98398.41;8302354;28;20029;-59
2023/03/31 14:49:44;;;;;;;5.65;0.90;;;;;;;17.45;61.87;98393.03;8308144;28;20307;-59
2023/03/31 14:53:44;;;;;;;6.40;0.95;;;;;;;17.38;62.12;98389.53;8312153;28;20475;-59
2023/03/31 14:57:49;;;;;;;5.70;1.02;;;;;;;17.31;62.78;98399.75;8309435;28;20960;-60
2023/03/31 15:01:50;;;;;;;5.97;0.90;;;;;;;17.17;62.90;98392.84;8294991;28;20091;-59
2023/03/31 15:05:57;;;;;;;7.30;0.90;;;;;;;17.06;64.39;98396.38;8304214;28;20325;-55
2023/03/31 15:09:58;;;;;;;8.13;1.00;;;;;;;17.08;63.88;98394.25;8314763;28;20062;-59
2023/03/31 15:13:59;;;;;;;5.90;1.23;;;;;;;17.06;64.28;98407.28;8314233;28;20116;-59
2023/03/31 15:18:00;;;;;;;6.07;1.05;;;;;;;17.01;65.37;98408.00;8296381;28;20064;-60
2023/03/31 15:22:09;;;;;;;5.43;0.93;;;;;;;16.78;64.99;98407.09;8283661;28;20038;-54
2023/03/31 15:26:11;;;;;;;4.97;1.08;;;;;;;16.74;66.02;98414.09;8258126;28;20054;-55
2023/03/31 15:30:18;;;;;;;6.13;1.23;;;;;;;16.45;68.94;98431.22;8259972;28;20046;-56
2023/03/31 15:34:26;;;;;;;5.15;0.93;;;;;;;16.14;72.04;98450.44;8275807;28;20486;-57
2023/03/31 15:38:31;;;;;;;2.95;0.95;;;;;;;15.66;75.60;98464.75;8301353;28;20495;-54
2023/03/31 15:42:32;;;;;;;5.32;0.80;;;;;;;15.40;78.05;98486.75;8290068;28;20505;-54
2023/03/31 15:50:58;;;;;;;5.47;1.00;;;;;;;15.41;82.25;98471.25;8355227;27;20487;-55
2023/03/31 15:55:00;;;;;;;3.13;0.70;;;;;;;15.39;83.44;98474.19;8310975;28;20056;-56
2023/03/31 15:59:04;;;;;;;3.92;1.05;;;;;;;15.43;83.09;98486.31;8319848;28;20048;-55
2023/03/31 16:03:14;;;;;;;4.78;0.70;;;;;;;15.27;84.10;98478.66;8321938;28;20314;-54
2023/03/31 16:07:27;;;;;;;5.63;0.82;;;;;;;14.96;88.15;98494.13;8368858;27;20064;-60
2023/03/31 16:11:48;;;;;;;9.43;1.60;;;;;;;14.51;91.04;98463.38;8337275;28;20524;-60
2023/03/31 16:15:51;;;;;;;11.77;0.90;;;;;;;14.42;93.91;98456.50;8306777;28;20273;-60
2023/03/31 16:19:59;;;;;;;9.23;2.03;;;;;;;14.43;94.28;98460.06;8354037;27;20033;-59
2023/03/31 16:24:00;;;;;;;7.95;1.25;;;;;;;14.48;93.94;98457.53;8380541;27;20518;-60
2023/03/31 16:28:01;;;;;;;6.97;0.98;;;;;;;14.60;91.51;98464.81;8325772;28;20042;-59
2023/03/31 16:32:18;;;;;;;4.68;1.00;;;;;;;14.62;91.24;98460.00;8305637;28;20039;-59
2023/03/31 16:36:18;;;;;;;3.38;0.77;;;;;;;14.67;89.55;98457.44;8297677;28;20068;-59
2023/03/31 16:40:19;;;;;;;4.85;0.60;;;;;;;14.73;88.32;98451.13;8302432;28;20044;-58
2023/03/31 16:44:19;;;;;;;6.30;0.95;;;;;;;14.76;86.00;98445.25;8284777;28;20049;-59
2023/03/31 16:48:21;;;;;;;4.35;0.80;;;;;;;14.75;86.50;98438.16;8288642;28;20034;-59
2023/03/31 16:52:22;;;;;;;4.18;1.08;;;;;;;14.91;85.70;98436.81;8299477;28;20058;-58
2023/03/31 16:56:23;;;;;;;3.70;0.63;;;;;;;14.94;84.01;98434.47;8291153;28;20034;-59
2023/03/31 17:00:24;;;;;;;3.53;0.57;;;;;;;14.97;83.72;98425.88;8284194;28;20096;-60
2023/03/31 17:04:24;;;;;;;5.13;1.05;;;;;;;14.92;81.78;98417.56;8308780;28;20036;-59
2023/03/31 17:08:26;;;;;;;6.13;0.68;;;;;;;15.02;80.11;98423.34;8311684;28;20108;-59
2023/03/31 17:12:26;;;;;;;2.92;0.70;;;;;;;14.97;78.68;98425.88;8290786;28;20096;-59
2023/03/31 17:16:27;;;;;;;4.72;1.05;;;;;;;14.91;79.92;98437.63;8281214;28;20042;-59
2023/03/31 17:20:29;;;;;;;3.42;0.77;;;;;;;14.93;78.77;98438.25;8285684;28;20153;-60
2023/03/31 17:24:29;;;;;;;7.72;0.90;;;;;;;14.92;78.23;98439.34;8320638;28;20034;-59
2023/03/31 17:28:30;;;;;;;5.15;1.00;;;;;;;14.83;78.26;98435.19;8290945;28;20129;-55
2023/03/31 17:32:31;;;;;;;2.35;0.82;;;;;;;14.66;79.56;98450.34;8310483;28;20522;-56
2023/03/31 17:36:31;;;;;;;2.65;0.45;;;;;;;14.60;80.27;98453.94;8320512;28;20430;-54
2023/03/31 17:40:33;;;;;;;5.32;0.63;;;;;;;14.60;79.21;98445.78;8297140;28;20041;-55
2023/03/31 17:44:33;;;;;;;7.10;0.95;;;;;;;14.55;78.15;98448.28;8292513;28;20042;-54
2023/03/31 17:48:34;;;;;;;5.53;0.73;;;;;;;14.53;78.48;98450.41;8284922;28;20044;-54
2023/03/31 17:52:35;;;;;;;4.68;0.82;;;;;;;14.48;79.26;98441.22;8316264;28;20348;-54
2023/03/31 17:56:36;;;;;;;4.07;0.82;;;;;;;14.50;79.72;98442.69;8325701;28;20029;-55
2023/03/31 18:00:37;;;;;;;4.70;0.90;;;;;;;14.46;78.82;98441.47;8298030;28;20070;-56
2023/03/31 18:04:37;;;;;;;4.55;0.70;;;;;;;14.37;79.72;98450.91;8286911;28;20061;-55
2023/03/31 18:08:39;;;;;;;4.78;1.05;;;;;;;14.26;80.01;98451.56;8288971;28;20087;-53
2023/03/31 18:12:40;;;;;;;2.88;0.68;;;;;;;14.17;81.10;98460.13;8289328;28;20038;-55
2023/03/31 18:16:40;;;;;;;4.88;1.15;;;;;;;13.94;84.41;98476.91;8288644;28;20042;-56
2023/03/31 18:20:41;;;;;;;9.57;1.40;;;;;;;13.71;87.26;98479.22;8291709;28;20117;-55
2023/03/31 18:24:43;;;;;;;4.00;0.77;;;;;;;13.43;90.04;98489.47;8321517;28;20045;-56
2023/03/31 18:28:44;;;;;;;4.03;1.30;;;;;;;13.28;92.75;98486.13;8322534;28;20040;-56
2023/03/31 18:32:45;;;;;;;4.25;0.98;;;;;;;13.18;94.88;98496.53;8269885;28;20073;-56
2023/03/31 18:36:45;;;;;;;8.40;0.77;;;;;;;13.08;96.58;98490.66;8268384;28;20038;-61
2023/03/31 18:40:48;;;;;;;5.43;1.40;;;;;;;13.06;97.44;98492.75;8295786;28;20125;-61
2023/03/31 18:44:49;;;;;;;4.50;1.02;;;;;;;13.15;94.13;98477.97;8292062;28;20400;-61
2023/03/31 18:48:50;;;;;;;4.68;0.88;;;;;;;13.16;92.25;98480.47;8285782;28;20074;-60
2023/03/31 18:52:51;;;;;;;3.13;0.93;;;;;;;13.24;91.80;98484.88;8305644;28;20038;-60
2023/03/31 18:56:51;;;;;;;2.60;0.88;;;;;;;13.35;88.82;98481.50;8280970;28;20037;-56
2023/03/31 19:00:52;;;;;;;4.32;0.90;;;;;;;13.41;88.82;98496.97;8286244;28;20140;-56
2023/03/31 19:04:52;;;;;;;4.25;1.10;;;;;;;13.36;89.98;98491.34;8288123;28;20444;-56
2023/03/31 19:08:55;;;;;;;5.22;1.08;;;;;;;13.34;89.15;98490.72;8285490;28;20073;-56
2023/03/31 19:12:55;;;;;;;3.42;0.60;;;;;;;13.33;88.94;98505.34;8280462;28;20046;-55
2023/03/31 19:16:56;;;;;;;4.75;0.88;;;;;;;13.24;89.47;98495.72;8254653;28;20224;-56
2023/03/31 19:20:58;;;;;;;4.43;0.98;;;;;;;13.21;89.22;98498.84;8285577;28;20305;-56
2023/03/31 19:24:58;;;;;;;3.88;0.93;;;;;;;13.12;91.20;98500.06;8305955;28;20986;-55
2023/03/31 19:28:59;;;;;;;3.17;1.08;;;;;;;12.95;92.48;98501.44;8282650;28;20390;-56
2023/03/31 19:33:01;;;;;;;2.85;0.80;;;;;;;12.89;92.63;98497.69;8278027;28;20038;-55
2023/03/31 19:37:02;;;;;;;8.05;0.90;;;;;;;12.97;91.66;98500.22;8279574;28;20054;-55
2023/03/31 19:41:06;;;;;;;2.22;0.77;;;;;;;12.96;90.90;98497.72;8282167;28;20580;-55
2023/03/31 19:45:07;;;;;;;3.70;0.83;;;;;;;12.98;90.24;98484.78;8282445;28;20493;-54